Time;durP1;ratioP1;P1;durP2;ratioP2;P2;SDS_P1;SDS_P2;PMS_P1;PMS_P2;Temp;Humidity;BMP_temperature;BMP_pressure;BME280_temperature;BME280_humidity;BME280_pressure;Samples;Min_cycle;Max_cycle;Signal;HPM_P1;HPM_P2
2024/04/21 00:01:55;;;;;;;5.00;2.50;;;;;;;11.31;61.42;99960.83;106165;1259;63708;-61
2024/04/21 00:04:24;;;;;;;4.50;1.10;;;;;;;11.27;61.77;99947.67;106286;1254;61999;-62
2024/04/21 00:06:51;;;;;;;5.20;2.70;;;;;;;11.19;62.19;99936.80;106303;1256;61155;-60
2024/04/21 00:09:19;;;;;;;7.00;2.90;;;;;;;11.10;62.57;99923.91;105213;1267;65821;-60
2024/04/21 00:11:47;;;;;;;4.80;1.10;;;;;;;11.05;63.02;99922.25;105206;1260;61536;-62
2024/04/21 00:14:14;;;;;;;4.90;2.50;;;;;;;11.03;63.19;99936.31;105565;1260;63833;-62
2024/04/21 00:16:42;;;;;;;4.60;2.00;;;;;;;10.99;63.55;99948.89;105191;1260;61336;-61
2024/04/21 00:19:09;;;;;;;7.10;3.50;;;;;;;10.96;63.71;99949.89;105059;1257;61183;-61
2024/04/21 00:21:37;;;;;;;4.90;2.60;;;;;;;10.95;63.82;99949.97;105183;1260;66588;-61
2024/04/21 00:24:05;;;;;;;4.20;1.50;;;;;;;10.94;64.02;99950.27;105085;1254;61327;-58
2024/04/21 00:26:32;;;;;;;6.80;2.90;;;;;;;10.93;64.10;99954.23;109254;1255;62456;-61
2024/04/21 00:29:01;;;;;;;4.30;0.90;;;;;;;10.95;64.27;99952.83;109113;1254;58936;-60
2024/04/21 00:31:28;;;;;;;5.10;1.60;;;;;;;10.99;64.46;99944.05;109220;1254;59305;-58
2024/04/21 00:33:56;;;;;;;8.60;3.40;;;;;;;11.02;64.62;99934.30;107662;1257;65768;-57
2024/04/21 00:36:23;;;;;;;6.10;3.70;;;;;;;10.98;64.76;99920.38;105120;1260;61216;-57
2024/04/21 00:38:51;;;;;;;4.20;1.40;;;;;;;10.93;64.99;99896.08;105144;1258;64264;-57
2024/04/21 00:41:18;;;;;;;6.40;3.10;;;;;;;10.89;65.21;99866.13;105166;1257;61368;-58
2024/04/21 00:43:46;;;;;;;5.90;2.80;;;;;;;10.83;65.57;99854.55;105103;1257;61950;-59
2024/04/21 00:46:13;;;;;;;5.40;1.50;;;;;;;10.79;65.82;99855.27;105195;1254;64577;-58
2024/04/21 00:48:41;;;;;;;7.90;3.70;;;;;;;10.74;66.16;99862.40;105225;1254;61193;-58
2024/04/21 00:51:09;;;;;;;5.70;1.80;;;;;;;10.68;66.30;99865.57;105171;1259;62594;-58
2024/04/21 00:53:37;;;;;;;7.20;3.30;;;;;;;10.63;66.51;99859.12;105628;1266;62722;-60
2024/04/21 00:56:05;;;;;;;7.70;3.60;;;;;;;10.63;66.67;99852.84;105291;1260;61247;-59
2024/04/21 00:58:33;;;;;;;4.60;1.90;;;;;;;10.63;66.83;99850.16;105728;1254;65690;-61
2024/04/21 01:01:00;;;;;;;7.30;3.30;;;;;;;10.59;67.08;99843.64;105768;1259;61342;-58
2024/04/21 01:03:28;;;;;;;3.70;1.50;;;;;;;10.53;67.32;99835.05;106490;1259;62535;-59
2024/04/21 01:05:55;;;;;;;6.50;3.20;;;;;;;10.53;67.33;99819.11;105945;1263;61336;-59
2024/04/21 01:08:23;;;;;;;13.20;2.10;;;;;;;10.57;67.37;99803.71;105896;1257;61188;-58
2024/04/21 01:10:50;;;;;;;5.50;2.80;;;;;;;10.55;67.43;99786.63;105219;1259;65791;-58
2024/04/21 01:13:18;;;;;;;7.40;3.50;;;;;;;10.58;67.34;99773.41;105231;1266;61340;-60
2024/04/21 01:15:50;;;;;;;3.50;1.30;;;;;;;10.56;67.45;99755.88;105411;1264;63713;-59
2024/04/21 01:18:18;;;;;;;6.30;3.30;;;;;;;10.56;67.57;99747.80;105137;1259;61307;-60
2024/04/21 01:20:47;;;;;;;5.60;1.90;;;;;;;10.57;67.64;99729.30;105462;1257;61329;-60
2024/04/21 01:23:18;;;;;;;5.10;2.70;;;;;;;10.55;67.77;99719.17;105415;1257;65718;-61
2024/04/21 01:25:46;;;;;;;3.80;1.20;;;;;;;10.48;67.88;99721.00;105293;1267;61337;-60
2024/04/21 01:28:14;;;;;;;5.50;2.50;;;;;;;10.43;68.13;99719.05;105381;1254;63808;-60
2024/04/21 01:30:41;;;;;;;5.00;2.50;;;;;;;10.41;68.13;99715.16;105122;1254;61244;-60
2024/04/21 01:33:09;;;;;;;4.50;1.60;;;;;;;10.41;68.20;99717.07;105163;1258;62131;-60
2024/04/21 01:35:36;;;;;;;5.40;2.60;;;;;;;10.39;68.25;99710.81;106589;1255;66904;-61
2024/04/21 01:38:04;;;;;;;3.00;1.00;;;;;;;10.41;68.25;99706.34;106178;1260;61467;-60
2024/04/21 01:40:31;;;;;;;4.70;2.40;;;;;;;10.44;68.30;99703.86;105262;1257;62626;-60
2024/04/21 01:42:59;;;;;;;7.60;2.70;;;;;;;10.47;68.04;99690.60;105276;1259;61248;-61
2024/04/21 01:45:27;;;;;;;4.00;1.60;;;;;;;10.45;67.97;99671.66;106683;1260;61356;-60
2024/04/21 01:47:54;;;;;;;5.60;2.30;;;;;;;10.42;67.95;99666.30;105598;1257;65726;-62
2024/04/21 01:50:23;;;;;;;3.50;1.00;;;;;;;10.42;68.06;99671.91;106324;1257;61375;-60
2024/04/21 01:52:51;;;;;;;4.10;2.00;;;;;;;10.47;68.07;99667.11;106232;1257;63792;-61
2024/04/21 01:55:18;;;;;;;3.30;1.20;;;;;;;10.48;67.92;99656.81;105215;1258;61217;-62
2024/04/21 01:57:49;;;;;;;4.50;1.80;;;;;;;10.45;67.96;99644.65;105215;1259;61324;-63
2024/04/21 02:00:16;;;;;;;3.00;1.00;;;;;;;10.38;67.99;99623.91;106202;1258;65703;-63
2024/04/21 02:02:44;;;;;;;4.20;1.90;;;;;;;10.38;67.92;99619.20;105846;1256;61473;-62
2024/04/21 02:05:12;;;;;;;3.70;1.00;;;;;;;10.39;67.68;99610.86;105692;1257;62783;-63
2024/04/21 02:07:39;;;;;;;5.20;2.80;;;;;;;10.33;67.86;99598.55;105828;1262;61412;-62
2024/04/21 02:10:07;;;;;;;6.40;3.10;;;;;;;10.32;68.19;99588.90;105238;1260;61528;-64
2024/04/21 02:12:34;;;;;;;4.90;1.80;;;;;;;10.34;68.20;99591.52;105316;1258;65730;-61
2024/04/21 02:15:02;;;;;;;6.70;4.00;;;;;;;10.35;68.27;99594.05;105192;1260;61413;-62
2024/04/21 02:17:29;;;;;;;5.70;1.30;;;;;;;10.32;68.22;99615.14;105840;1257;63857;-61
2024/04/21 02:19:57;;;;;;;6.40;3.50;;;;;;;10.27;68.22;99623.80;105083;1260;61240;-62
2024/04/21 02:22:25;;;;;;;12.30;2.50;;;;;;;10.32;68.12;99626.36;105232;1267;61161;-63
2024/04/21 02:24:52;;;;;;;5.80;3.50;;;;;;;10.33;68.37;99613.16;105330;1254;65659;-61
2024/04/21 02:27:20;;;;;;;5.40;2.10;;;;;;;10.34;68.42;99599.02;105265;1257;61393;-61
2024/04/21 02:29:47;;;;;;;6.00;2.80;;;;;;;10.31;68.47;99579.51;105311;1257;63959;-61
2024/04/21 02:32:15;;;;;;;4.80;1.50;;;;;;;10.31;68.30;99572.97;105237;1259;61293;-60
2024/04/21 02:34:43;;;;;;;5.90;3.60;;;;;;;10.36;68.07;99583.59;105194;1260;61403;-61
2024/04/21 02:37:11;;;;;;;7.00;3.70;;;;;;;10.35;68.28;99590.39;106324;1254;65817;-62
2024/04/21 02:39:38;;;;;;;4.70;1.80;;;;;;;10.32;68.44;99572.36;105827;1257;61251;-60
2024/04/21 02:42:06;;;;;;;5.90;3.20;;;;;;;10.28;68.36;99546.77;105298;1257;62492;-66
2024/04/21 02:44:33;;;;;;;6.30;1.90;;;;;;;10.29;68.38;99530.59;106090;1254;61461;-63
2024/04/21 02:47:01;;;;;;;5.90;3.00;;;;;;;10.27;68.04;99527.23;106289;1257;61218;-66
2024/04/21 02:49:29;;;;;;;3.60;1.40;;;;;;;10.28;68.09;99515.05;106309;1257;65765;-62
2024/04/21 02:51:56;;;;;;;4.20;1.70;;;;;;;10.25;68.24;99498.33;106188;1255;61392;-63
2024/04/21 02:54:26;;;;;;;7.30;3.20;;;;;;;10.30;68.27;99506.65;105800;1259;63705;-65
2024/04/21 02:56:53;;;;;;;3.20;1.00;;;;;;;10.34;68.30;99513.52;106238;1260;61314;-66
2024/04/21 02:59:21;;;;;;;5.40;2.50;;;;;;;10.33;68.33;99513.88;106150;1260;61244;-63
2024/04/21 03:01:48;;;;;;;3.00;1.10;;;;;;;10.32;68.18;99498.71;105986;1258;64478;-67
2024/04/21 03:04:17;;;;;;;5.00;2.60;;;;;;;10.31;67.92;99484.48;106212;1254;61276;-67
2024/04/21 03:06:47;;;;;;;6.10;1.30;;;;;;;10.35;67.83;99477.30;106342;1259;64218;-64
2024/04/21 03:09:15;;;;;;;4.90;2.40;;;;;;;10.32;67.88;99469.87;106246;1256;61336;-64
2024/04/21 03:11:45;;;;;;;4.40;1.50;;;;;;;10.35;68.09;99476.20;106288;1254;61332;-64
2024/04/21 03:14:12;;;;;;;7.20;2.40;;;;;;;10.35;68.37;99464.80;106181;1254;64523;-69
2024/04/21 03:16:40;;;;;;;3.10;1.20;;;;;;;10.38;68.35;99459.98;106353;1255;61183;-70
2024/04/21 03:19:07;;;;;;;5.70;2.60;;;;;;;10.35;68.69;99451.00;106246;1255;62540;-66
2024/04/21 03:21:34;;;;;;;5.80;1.60;;;;;;;10.29;69.02;99440.64;106261;1254;61254;-67
2024/04/21 03:24:02;;;;;;;5.50;2.60;;;;;;;10.33;69.13;99437.11;106306;1254;61445;-66
2024/04/21 03:26:30;;;;;;;6.40;2.90;;;;;;;10.38;69.23;99429.34;106246;1255;65738;-66
2024/04/21 03:28:57;;;;;;;5.80;2.70;;;;;;;10.41;69.32;99419.35;106280;1257;61765;-69
2024/04/21 03:31:24;;;;;;;3.20;1.10;;;;;;;10.39;69.51;99413.58;106275;1255;63868;-67
2024/04/21 03:33:52;;;;;;;5.70;2.60;;;;;;;10.36;69.60;99411.77;106339;1254;61423;-70
2024/04/21 03:36:19;;;;;;;4.80;1.90;;;;;;;10.36;69.74;99413.76;106190;1254;61329;-63
2024/04/21 03:38:47;;;;;;;6.10;3.80;;;;;;;10.36;69.76;99412.33;106034;1260;65675;-67
2024/04/21 03:41:14;;;;;;;6.10;3.40;;;;;;;10.39;69.72;99411.52;106102;1257;62337;-64
2024/04/21 03:43:46;;;;;;;5.90;1.80;;;;;;;10.39;69.83;99423.77;106146;1254;64139;-65
2024/04/21 03:46:13;;;;;;;6.30;2.80;;;;;;;10.37;70.02;99424.36;106132;1254;61399;-68
2024/04/21 03:48:41;;;;;;;5.50;3.00;;;;;;;10.38;69.92;99409.14;106143;1254;61173;-66
2024/04/21 03:51:09;;;;;;;5.20;1.60;;;;;;;10.33;70.09;99386.44;105697;1254;66284;-68
2024/04/21 03:53:36;;;;;;;6.20;2.80;;;;;;;10.29;70.31;99400.73;106332;1257;69245;-62
2024/04/21 03:56:04;;;;;;;4.50;1.50;;;;;;;10.30;70.40;99388.17;106603;1254;62543;-61
2024/04/21 03:58:32;;;;;;;3.80;1.50;;;;;;;10.30;70.67;99372.86;105925;1257;61279;-65
2024/04/21 04:01:00;;;;;;;6.70;2.50;;;;;;;10.32;70.82;99360.27;105167;1254;61365;-65
2024/04/21 04:03:28;;;;;;;5.20;1.50;;;;;;;10.31;71.14;99368.53;106160;1254;66887;-68
2024/04/21 04:05:55;;;;;;;4.70;2.20;;;;;;;10.34;71.18;99361.31;106282;1254;61384;-63
2024/04/21 04:08:23;;;;;;;9.20;2.30;;;;;;;10.38;71.26;99354.27;106227;1254;62507;-65
2024/04/21 04:10:51;;;;;;;4.90;1.70;;;;;;;10.42;71.19;99354.19;106249;1257;61339;-69
2024/04/21 04:13:18;;;;;;;8.70;2.20;;;;;;;10.48;71.12;99354.35;106235;1256;61178;-68
2024/04/21 04:15:46;;;;;;;5.70;2.60;;;;;;;10.50;71.05;99358.93;106397;1257;64449;-71
2024/04/21 04:18:14;;;;;;;3.30;1.10;;;;;;;10.49;71.19;99352.15;106100;1254;62173;-70
2024/04/21 04:20:41;;;;;;;6.10;1.30;;;;;;;10.52;71.04;99339.10;106243;1254;63768;-68
2024/04/21 04:23:10;;;;;;;4.50;1.90;;;;;;;10.55;70.84;99334.54;106221;1254;61269;-67
2024/04/21 04:25:38;;;;;;;5.00;2.60;;;;;;;10.56;70.70;99328.70;106323;1254;61281;-67
2024/04/21 04:28:05;;;;;;;4.40;1.30;;;;;;;10.56;70.89;99321.65;106256;1254;65757;-68
2024/04/21 04:30:33;;;;;;;6.50;2.10;;;;;;;10.58;70.70;99318.46;106324;1254;61311;-65
2024/04/21 04:33:00;;;;;;;2.80;0.80;;;;;;;10.62;70.48;99319.88;106317;1254;62478;-66
2024/04/21 04:35:28;;;;;;;5.10;2.50;;;;;;;10.67;70.33;99315.05;106280;1254;61355;-66
2024/04/21 04:37:55;;;;;;;6.20;3.10;;;;;;;10.67;70.36;99312.08;106294;1254;61311;-69
2024/04/21 04:40:23;;;;;;;5.20;1.10;;;;;;;10.66;70.41;99313.20;106167;1254;64459;-69
2024/04/21 04:42:50;;;;;;;5.70;2.80;;;;;;;10.67;70.31;99315.02;106234;1257;61236;-69
2024/04/21 04:45:20;;;;;;;4.70;1.40;;;;;;;10.68;70.15;99299.98;106269;1259;62441;-73
2024/04/21 04:47:47;;;;;;;6.10;3.10;;;;;;;10.69;70.09;99285.31;106238;1254;61185;-66
2024/04/21 04:50:15;;;;;;;3.40;1.30;;;;;;;10.65;70.09;99272.02;106170;1254;61471;-67
2024/04/21 04:52:42;;;;;;;6.20;3.40;;;;;;;10.63;70.17;99272.12;106047;1254;66896;-69
2024/04/21 04:55:10;;;;;;;5.50;3.20;;;;;;;10.66;70.03;99266.92;106106;1254;61352;-65
2024/04/21 04:57:37;;;;;;;5.70;3.00;;;;;;;10.66;70.00;99267.26;106243;1254;64723;-69
2024/04/21 05:00:05;;;;;;;4.00;1.60;;;;;;;10.68;70.13;99262.87;106273;1252;61365;-66
2024/04/21 05:02:33;;;;;;;5.40;2.90;;;;;;;10.66;70.27;99267.81;106220;1254;61288;-70
2024/04/21 05:05:01;;;;;;;5.60;3.10;;;;;;;10.70;70.43;99253.02;106713;1254;65782;-60
2024/04/21 05:07:28;;;;;;;5.50;2.20;;;;;;;10.72;70.44;99235.25;105156;1254;61503;-64
2024/04/21 05:09:56;;;;;;;6.00;3.40;;;;;;;10.75;70.37;99229.19;105581;1257;62534;-65
2024/04/21 05:12:23;;;;;;;4.20;1.50;;;;;;;10.73;70.54;99227.42;105189;1254;61274;-67
2024/04/21 05:14:51;;;;;;;4.80;2.60;;;;;;;10.75;70.36;99211.84;106272;1253;61102;-64
2024/04/21 05:17:18;;;;;;;4.40;1.40;;;;;;;10.76;70.24;99193.64;106332;1254;67134;-63
2024/04/21 05:19:46;;;;;;;5.00;2.40;;;;;;;10.80;70.19;99194.16;105023;1253;61268;-64
2024/04/21 05:22:13;;;;;;;5.20;2.60;;;;;;;10.80;70.26;99196.57;106209;1254;62733;-64
2024/04/21 05:24:41;;;;;;;4.10;1.40;;;;;;;10.79;70.36;99197.50;106343;1257;59663;-66
2024/04/21 05:27:09;;;;;;;5.00;2.60;;;;;;;10.80;70.38;99192.16;106116;1260;61316;-70
2024/04/21 05:29:36;;;;;;;3.10;1.00;;;;;;;10.87;70.22;99193.30;106278;1257;64770;-67
2024/04/21 05:32:04;;;;;;;5.30;2.10;;;;;;;10.88;70.18;99191.00;106370;1254;61285;-64
2024/04/21 05:34:32;;;;;;;4.70;2.40;;;;;;;10.88;70.08;99183.88;106249;1254;63747;-66
2024/04/21 05:36:59;;;;;;;6.10;1.80;;;;;;;10.90;69.93;99180.52;106290;1254;61271;-67
2024/04/21 05:39:27;;;;;;;3.60;1.30;;;;;;;10.94;69.76;99185.18;106316;1254;61439;-65
2024/04/21 05:41:54;;;;;;;4.20;1.50;;;;;;;10.98;69.80;99184.42;106236;1254;65785;-65
2024/04/21 05:44:22;;;;;;;4.60;2.00;;;;;;;10.98;69.74;99189.18;106469;1254;61522;-64
2024/04/21 05:46:49;;;;;;;4.30;1.90;;;;;;;11.00;69.75;99200.95;106128;1254;64663;-67
2024/04/21 05:49:19;;;;;;;4.10;1.60;;;;;;;11.05;69.59;99206.77;106207;1254;61217;-64
2024/04/21 05:51:47;;;;;;;2.10;0.70;;;;;;;11.11;69.53;99212.55;106121;1254;61166;-69
2024/04/21 05:54:16;;;;;;;3.60;1.40;;;;;;;11.17;69.48;99207.43;106240;1254;64744;-69
2024/04/21 05:56:43;;;;;;;3.90;1.70;;;;;;;11.19;69.38;99203.01;106288;1254;61167;-67
2024/04/21 05:59:11;;;;;;;4.30;1.50;;;;;;;11.18;69.24;99194.68;106167;1258;63783;-66
2024/04/21 06:01:38;;;;;;;3.60;1.50;;;;;;;11.21;68.92;99186.85;106227;1254;61212;-68
2024/04/21 06:04:06;;;;;;;2.20;0.70;;;;;;;11.23;68.65;99178.23;106327;1253;61176;-70
2024/04/21 06:06:34;;;;;;;3.50;1.30;;;;;;;11.23;68.42;99163.33;107768;1254;65763;-70
2024/04/21 06:09:01;;;;;;;4.10;1.80;;;;;;;11.23;68.42;99160.44;106137;1254;63790;-72
2024/04/21 06:11:28;;;;;;;4.40;1.80;;;;;;;11.22;68.71;99156.92;106111;1254;63785;-71
2024/04/21 06:14:05;;;;;;;3.30;1.00;;;;;;;11.24;68.67;99150.88;106336;1257;61256;-68
2024/04/21 06:16:32;;;;;;;4.60;2.10;;;;;;;11.31;68.57;99154.20;106276;1253;61368;-70
2024/04/21 06:19:00;;;;;;;4.90;2.10;;;;;;;11.38;68.56;99159.31;106330;1257;64527;-65
2024/04/21 06:21:27;;;;;;;4.30;1.80;;;;;;;11.40;68.52;99154.23;106101;1254;61375;-68
2024/04/21 06:23:55;;;;;;;5.50;2.20;;;;;;;11.37;68.38;99149.80;106640;1257;62498;-69
2024/04/21 06:26:23;;;;;;;2.80;1.10;;;;;;;11.38;68.20;99150.93;106239;1254;61192;-69
2024/04/21 06:28:50;;;;;;;4.60;2.00;;;;;;;11.37;68.11;99152.94;106288;1254;62258;-70
2024/04/21 06:31:18;;;;;;;5.80;2.20;;;;;;;11.38;68.21;99147.38;106386;1254;65647;-70
2024/04/21 06:33:45;;;;;;;3.10;1.20;;;;;;;11.36;68.36;99139.36;106214;1259;61301;-62
2024/04/21 06:36:13;;;;;;;5.20;2.30;;;;;;;11.31;68.45;99129.30;106261;1254;64204;-68
2024/04/21 06:38:40;;;;;;;3.10;1.00;;;;;;;11.31;68.42;99115.73;106120;1254;61263;-70
2024/04/21 06:41:10;;;;;;;6.60;2.30;;;;;;;11.35;68.48;99109.39;106214;1251;61911;-69
2024/04/21 06:43:37;;;;;;;8.70;2.60;;;;;;;11.36;68.49;99100.52;106119;1259;65721;-67
2024/04/21 06:46:05;;;;;;;5.10;2.70;;;;;;;11.38;68.41;99092.06;106172;1254;61578;-69
2024/04/21 06:48:32;;;;;;;5.80;2.50;;;;;;;11.38;68.56;99085.34;106236;1257;72861;-65
2024/04/21 06:51:00;;;;;;;3.80;1.10;;;;;;;11.41;68.50;99080.71;106056;1254;209349;-64
2024/04/21 06:55:54;;;;;;;5.00;1.40;;;;;;;11.11;69.76;99078.71;102986;1292;600967;-67
2024/04/21 06:58:21;;;;;;;5.70;3.20;;;;;;;11.37;68.78;99081.82;105178;1267;59696;-68
2024/04/21 07:00:50;;;;;;;4.80;2.30;;;;;;;11.40;68.71;99079.59;105308;1268;59747;-65
2024/04/21 07:03:17;;;;;;;6.30;2.90;;;;;;;11.43;68.54;99075.59;104968;1276;64229;-70
2024/04/21 07:05:46;;;;;;;7.10;3.10;;;;;;;11.45;68.48;99078.17;105333;1267;60190;-64
2024/04/21 07:08:13;;;;;;;6.00;1.90;;;;;;;11.49;68.43;99079.85;104513;1270;63128;-67
2024/04/21 07:10:42;;;;;;;5.50;3.10;;;;;;;11.48;68.45;99078.66;104059;1265;166175;-68
2024/04/21 07:13:11;;;;;;;4.70;1.80;;;;;;;11.51;68.42;99075.92;105671;1273;59570;-61
2024/04/21 07:15:39;;;;;;;7.30;3.40;;;;;;;11.58;68.43;99066.50;104337;1270;66388;-63
2024/04/21 07:18:06;;;;;;;5.50;3.50;;;;;;;11.58;68.51;99058.50;104382;1267;60481;-63
2024/04/21 07:20:34;;;;;;;6.10;3.30;;;;;;;11.59;68.56;99064.55;104311;1270;63766;-60
2024/04/21 07:23:01;;;;;;;6.20;4.10;;;;;;;11.60;68.64;99070.64;104224;1267;60459;-62
2024/04/21 07:25:29;;;;;;;5.80;1.80;;;;;;;11.58;68.52;99058.05;104270;1269;60376;-59
2024/04/21 07:27:57;;;;;;;6.60;3.60;;;;;;;11.58;68.41;99052.93;104202;1270;65574;-60
2024/04/21 07:30:25;;;;;;;6.60;3.70;;;;;;;11.60;68.41;99047.40;105004;1265;61366;-61
2024/04/21 07:32:53;;;;;;;7.00;3.70;;;;;;;11.60;68.39;99045.69;105025;1264;73639;-59
2024/04/21 07:35:21;;;;;;;6.40;3.90;;;;;;;11.61;68.53;99041.52;104168;1266;60578;-61
2024/04/21 07:37:48;;;;;;;6.80;4.20;;;;;;;11.59;68.57;99034.20;105104;1264;60570;-61
2024/04/21 07:40:16;;;;;;;5.50;1.90;;;;;;;11.60;68.43;99032.69;104127;1270;65062;-61
2024/04/21 07:42:44;;;;;;;5.90;3.40;;;;;;;11.63;68.61;99035.92;104436;1267;61360;-59
2024/04/21 07:45:12;;;;;;;8.50;4.30;;;;;;;11.68;68.49;99043.36;104501;1266;66473;-59
2024/04/21 07:47:39;;;;;;;6.40;4.00;;;;;;;11.71;68.35;99049.27;104281;1267;60585;-61
2024/04/21 07:50:07;;;;;;;5.80;4.00;;;;;;;11.68;68.41;99039.51;104322;1269;60400;-61
2024/04/21 07:52:34;;;;;;;8.20;4.30;;;;;;;11.67;68.32;99026.11;104207;1270;76022;-62
2024/04/21 07:55:02;;;;;;;5.70;2.40;;;;;;;11.67;68.38;99021.77;108237;1263;62258;-63
2024/04/21 07:57:30;;;;;;;6.70;4.50;;;;;;;11.73;68.37;99024.80;108357;1263;77485;-63
2024/04/21 07:59:57;;;;;;;6.30;4.10;;;;;;;11.79;68.25;99031.79;108378;1265;62973;-61
2024/04/21 08:02:25;;;;;;;8.60;4.50;;;;;;;11.82;68.29;99029.68;108419;1264;58641;-60
2024/04/21 08:04:59;;;;;;;7.80;4.60;;;;;;;11.83;68.14;99018.31;108435;1265;65846;-60
2024/04/21 08:07:27;;;;;;;6.90;4.60;;;;;;;11.82;68.07;99014.34;107533;1267;62291;-60
2024/04/21 08:09:54;;;;;;;9.20;5.00;;;;;;;11.89;67.92;99012.73;104249;1266;64062;-60
2024/04/21 08:12:22;;;;;;;6.70;4.40;;;;;;;11.95;67.95;99013.89;104273;1267;60478;-60
2024/04/21 08:14:49;;;;;;;8.50;4.60;;;;;;;12.00;67.96;99009.51;104224;1270;60399;-61
2024/04/21 08:17:17;;;;;;;9.20;4.70;;;;;;;12.03;67.74;99008.05;104482;1266;76080;-61
2024/04/21 08:19:44;;;;;;;5.80;2.50;;;;;;;12.02;67.64;99008.52;104330;1266;62289;-60
2024/04/21 08:22:12;;;;;;;9.30;5.30;;;;;;;11.98;67.50;99015.55;104500;1266;64795;-59
2024/04/21 08:24:40;;;;;;;7.70;4.80;;;;;;;11.97;67.59;99018.94;104177;1267;60465;-60
2024/04/21 08:27:07;;;;;;;7.90;5.10;;;;;;;12.04;67.30;99029.09;104257;1267;60574;-61
2024/04/21 08:29:35;;;;;;;7.90;4.80;;;;;;;12.10;67.37;99034.29;106693;1263;68009;-61
2024/04/21 08:32:03;;;;;;;7.00;2.60;;;;;;;12.16;67.44;99037.71;104495;1264;72860;-62
2024/04/21 08:34:31;;;;;;;8.50;5.70;;;;;;;12.16;67.38;99039.77;106594;1266;63900;-60
2024/04/21 08:36:59;;;;;;;6.80;4.90;;;;;;;12.15;67.13;99036.36;104286;1266;62839;-61
2024/04/21 08:39:26;;;;;;;8.70;5.60;;;;;;;12.11;67.39;99035.96;105046;1266;62123;-61
2024/04/21 08:41:55;;;;;;;8.10;5.20;;;;;;;12.13;67.34;99039.10;104163;1266;76157;-62
2024/04/21 08:44:23;;;;;;;10.10;5.00;;;;;;;12.14;67.43;99041.20;105080;1264;62900;-60
2024/04/21 08:46:50;;;;;;;7.30;4.90;;;;;;;12.18;67.46;99042.70;104206;1266;65882;-62
2024/04/21 08:49:21;;;;;;;8.40;5.20;;;;;;;12.20;67.56;99039.16;104311;1266;62397;-60
2024/04/21 08:51:48;;;;;;;7.90;5.90;;;;;;;12.16;67.37;99035.02;104378;1267;60522;-61
2024/04/21 08:54:16;;;;;;;9.00;5.80;;;;;;;12.13;67.83;99026.15;104279;1266;65315;-60
2024/04/21 08:56:44;;;;;;;7.80;5.50;;;;;;;12.20;67.91;99026.66;106119;1268;60632;-62
2024/04/21 08:59:12;;;;;;;8.00;5.50;;;;;;;12.25;68.07;99026.10;104777;1268;62641;-61
2024/04/21 09:01:40;;;;;;;8.90;5.80;;;;;;;12.30;68.32;99030.55;104580;1262;61052;-61
2024/04/21 09:04:08;;;;;;;9.40;6.60;;;;;;;12.33;68.40;99028.14;106672;1262;60565;-60
2024/04/21 09:06:37;;;;;;;9.00;6.70;;;;;;;12.33;68.49;99032.61;104516;1264;72730;-62
2024/04/21 09:09:04;;;;;;;10.30;6.80;;;;;;;12.35;68.28;99034.39;104708;1264;73138;-63
2024/04/21 09:11:32;;;;;;;8.80;6.00;;;;;;;12.36;68.32;99040.92;105592;1263;73510;-61
2024/04/21 09:14:00;;;;;;;9.80;6.40;;;;;;;12.35;68.45;99028.41;105213;1263;62206;-60
2024/04/21 09:16:28;;;;;;;6.20;3.50;;;;;;;12.31;68.52;99034.27;105942;1263;62319;-62
2024/04/21 09:18:56;;;;;;;12.40;7.20;;;;;;;12.28;68.93;99034.27;105108;1262;74234;-60
2024/04/21 09:21:24;;;;;;;13.20;7.30;;;;;;;12.31;69.11;99032.52;104512;1261;70360;-61
2024/04/21 09:23:51;;;;;;;9.20;6.10;;;;;;;12.35;69.05;99030.30;104564;1263;64857;-61
2024/04/21 09:26:20;;;;;;;10.30;6.10;;;;;;;12.35;69.15;99030.84;106286;1260;60508;-62
2024/04/21 09:28:49;;;;;;;10.50;7.10;;;;;;;12.34;69.17;99031.30;104560;1263;60509;-62
2024/04/21 09:31:17;;;;;;;10.60;7.20;;;;;;;12.31;69.41;99039.02;104526;1263;75669;-62
2024/04/21 09:33:46;;;;;;;10.60;7.60;;;;;;;12.28;69.49;99040.80;105645;1264;61908;-63
2024/04/21 09:36:14;;;;;;;8.90;6.20;;;;;;;12.29;69.61;99038.59;104797;1266;63953;-62
2024/04/21 09:38:42;;;;;;;9.00;6.80;;;;;;;12.32;69.56;99037.65;104632;1263;62639;-63
2024/04/21 09:41:09;;;;;;;9.50;6.40;;;;;;;12.30;69.84;99036.71;104494;1263;60563;-62
2024/04/21 09:43:36;;;;;;;7.60;3.80;;;;;;;12.33;69.95;99041.75;104375;1266;76076;-61
2024/04/21 09:46:04;;;;;;;9.70;7.40;;;;;;;12.33;70.16;99041.94;104535;1262;72873;-62
2024/04/21 09:48:32;;;;;;;10.90;7.30;;;;;;;12.33;70.48;99039.50;105715;1263;66104;-61
2024/04/21 09:51:00;;;;;;;8.50;6.50;;;;;;;12.38;70.55;99037.88;104441;1263;60533;-60
2024/04/21 09:53:28;;;;;;;10.00;6.60;;;;;;;12.46;70.45;99037.90;104586;1263;60566;-61
2024/04/21 09:55:56;;;;;;;9.50;7.10;;;;;;;12.52;70.53;99039.73;104487;1264;76579;-60
2024/04/21 09:58:25;;;;;;;10.00;6.90;;;;;;;12.56;70.43;99035.00;105281;1264;62019;-61
2024/04/21 10:00:53;;;;;;;11.50;6.80;;;;;;;12.59;70.32;99037.67;105285;1264;65997;-60
2024/04/21 10:03:21;;;;;;;9.50;6.60;;;;;;;12.62;70.49;99042.69;105240;1264;62055;-62
2024/04/21 10:05:50;;;;;;;9.40;6.70;;;;;;;12.69;70.51;99045.63;104415;1264;60648;-62
2024/04/21 10:08:18;;;;;;;12.20;7.30;;;;;;;12.75;70.38;99042.32;105294;1264;65241;-60
2024/04/21 10:10:51;;;;;;;10.10;6.40;;;;;;;12.76;70.16;99041.48;104426;1264;62348;-64
2024/04/21 10:13:19;;;;;;;8.10;4.20;;;;;;;12.76;70.09;99040.44;104633;1264;64126;-61
2024/04/21 10:15:47;;;;;;;11.60;7.00;;;;;;;12.72;69.92;99040.31;106985;1266;59650;-61
2024/04/21 10:18:19;;;;;;;11.30;6.90;;;;;;;12.70;69.89;99039.09;104537;1264;60541;-64
2024/04/21 10:20:48;;;;;;;9.10;7.10;;;;;;;12.72;69.93;99041.38;104512;1267;63762;-61
2024/04/21 10:23:15;;;;;;;10.30;6.40;;;;;;;12.84;70.04;99042.05;104585;1265;62513;-62
2024/04/21 10:25:44;;;;;;;8.50;6.50;;;;;;;12.95;69.87;99039.87;104364;1264;64182;-61
2024/04/21 10:28:13;;;;;;;8.60;6.10;;;;;;;13.04;69.51;99038.17;104622;1263;60461;-65
2024/04/21 10:30:41;;;;;;;9.50;6.40;;;;;;;13.08;69.52;99043.38;105546;1265;60553;-61
2024/04/21 10:33:13;;;;;;;9.10;6.70;;;;;;;13.13;69.64;99046.48;104255;1263;69244;-65
2024/04/21 10:35:42;;;;;;;8.60;6.30;;;;;;;13.21;69.49;99046.53;104587;1267;72610;-64
2024/04/21 10:38:13;;;;;;;11.50;7.00;;;;;;;13.30;69.21;99045.54;104890;1264;62855;-66
2024/04/21 10:40:45;;;;;;;10.40;6.50;;;;;;;13.39;69.00;99045.94;104619;1264;64043;-67
2024/04/21 10:43:14;;;;;;;11.30;6.40;;;;;;;13.48;68.93;99040.50;104273;1264;60928;-66
2024/04/21 10:45:42;;;;;;;10.30;6.40;;;;;;;13.63;68.97;99041.26;105639;1263;68002;-59
2024/04/21 10:48:10;;;;;;;10.70;6.20;;;;;;;13.76;68.89;99040.21;107356;1265;63988;-64
2024/04/21 10:50:38;;;;;;;8.70;6.50;;;;;;;13.83;68.39;99039.77;104126;1264;66120;-62
2024/04/21 10:53:07;;;;;;;9.40;6.60;;;;;;;13.82;68.00;99046.20;104245;1264;60534;-63
2024/04/21 10:55:35;;;;;;;10.90;7.20;;;;;;;13.81;67.61;99048.45;105868;1263;61019;-68
2024/04/21 10:58:06;;;;;;;10.60;6.70;;;;;;;13.82;67.35;99047.17;106060;1262;76166;-62
2024/04/21 11:00:37;;;;;;;9.10;6.00;;;;;;;13.86;67.14;99036.98;106190;1261;73001;-66
2024/04/21 11:03:06;;;;;;;9.60;6.90;;;;;;;13.89;67.39;99034.03;105743;1262;75040;-66
2024/04/21 11:05:45;;;;;;;9.80;7.10;;;;;;;14.02;67.56;99036.85;105225;1267;60053;-64
2024/04/21 11:08:12;;;;;;;8.80;6.40;;;;;;;14.24;67.64;99039.61;104504;1263;61280;-67
2024/04/21 11:10:40;;;;;;;10.30;6.80;;;;;;;14.45;67.12;99033.81;107551;1258;65015;-69
2024/04/21 11:13:09;;;;;;;10.60;6.30;;;;;;;14.62;66.44;99027.23;106436;1253;61258;-65
2024/04/21 11:15:40;;;;;;;9.90;6.90;;;;;;;14.84;65.93;99027.80;106498;1253;64070;-64
2024/04/21 11:18:08;;;;;;;11.50;7.70;;;;;;;15.06;65.62;99020.90;108999;1254;59480;-64
2024/04/21 11:20:36;;;;;;;11.60;7.90;;;;;;;15.29;65.39;99018.84;109131;1255;60983;-68
2024/04/21 11:23:03;;;;;;;12.30;7.80;;;;;;;15.47;64.68;99015.90;107191;1255;68223;-66
2024/04/21 11:25:31;;;;;;;10.30;7.00;;;;;;;15.66;64.03;99013.67;105702;1254;63878;-67
2024/04/21 11:27:59;;;;;;;9.60;6.70;;;;;;;15.85;63.05;99008.13;106430;1253;64822;-69
2024/04/21 11:30:26;;;;;;;14.60;7.20;;;;;;;16.01;62.30;99002.93;105479;1258;61318;-66